createdAt,value
2018-02-11T00:00:56.974Z,3.40
2018-02-11T00:01:57.029Z,3.30
2018-02-11T00:02:57.082Z,3.80
2018-02-11T00:03:57.137Z,3.50
2018-02-11T00:04:57.192Z,3.50
2018-02-11T00:05:57.245Z,3.50
2018-02-11T00:06:57.298Z,3.50
2018-02-11T00:07:57.358Z,3.60
2018-02-11T00:08:57.409Z,4.10
2018-02-11T00:09:57.461Z,3.30
2018-02-11T00:10:57.518Z,3.90
2018-02-11T00:11:57.571Z,3.30
2018-02-11T00:12:57.630Z,3.30
2018-02-11T00:13:57.680Z,3.30
2018-02-11T00:14:57.735Z,3.70
2018-02-11T00:15:57.788Z,3.10
2018-02-11T00:16:57.843Z,3.40
2018-02-11T00:17:57.945Z,3.20
2018-02-11T00:18:57.950Z,3.60
2018-02-11T00:19:58.006Z,3.20
2018-02-11T00:20:58.059Z,3.40
2018-02-11T00:21:58.112Z,3.40
2018-02-11T00:22:58.167Z,3.50
2018-02-11T00:23:58.222Z,3.40
2018-02-11T00:24:58.275Z,3.80
2018-02-11T00:25:58.330Z,3.90
2018-02-11T00:26:58.384Z,3.30
2018-02-11T00:27:58.440Z,3.30
2018-02-11T00:28:58.495Z,3.10
2018-02-11T00:29:58.547Z,3.30
2018-02-11T00:30:58.602Z,3.40
2018-02-11T00:31:58.657Z,3.00
2018-02-11T00:32:58.711Z,2.80
2018-02-11T00:33:58.765Z,3.20
2018-02-11T00:34:58.819Z,3.40
2018-02-11T00:35:58.874Z,3.40
2018-02-11T00:36:58.928Z,3.60
2018-02-11T00:37:58.983Z,3.30
2018-02-11T00:38:59.036Z,3.20
2018-02-11T00:39:59.092Z,2.80
2018-02-11T00:40:59.147Z,3.30
2018-02-11T00:41:59.199Z,3.20
2018-02-11T00:42:59.255Z,3.20
2018-02-11T00:43:59.308Z,3.60
2018-02-11T00:44:59.363Z,3.30
2018-02-11T00:45:59.467Z,3.00
2018-02-11T00:46:59.472Z,2.90
2018-02-11T00:47:59.527Z,3.40
2018-02-11T00:48:59.636Z,2.90
2018-02-11T00:49:59.634Z,3.30
2018-02-11T00:50:59.689Z,3.20
2018-02-11T00:51:59.743Z,3.00
2018-02-11T00:52:59.797Z,3.00
2018-02-11T00:53:59.851Z,3.20
2018-02-11T00:54:59.906Z,3.20
2018-02-11T00:55:59.960Z,3.20
2018-02-11T00:57:00.024Z,3.00
2018-02-11T00:58:00.075Z,3.30
2018-02-11T00:59:00.125Z,3.20
2018-02-11T01:00:00.179Z,2.80
2018-02-11T01:01:00.235Z,3.10
2018-02-11T01:02:00.289Z,3.10
2018-02-11T01:03:00.342Z,3.30
2018-02-11T01:04:00.396Z,3.10
2018-02-11T01:05:00.452Z,3.10
2018-02-11T01:06:00.504Z,3.00
2018-02-11T01:07:00.560Z,2.70
2018-02-11T01:08:00.615Z,2.90
2018-02-11T01:09:00.670Z,2.90
2018-02-11T01:10:00.722Z,3.10
2018-02-11T01:11:00.776Z,3.20
2018-02-11T01:12:00.831Z,3.40
2018-02-11T01:13:00.886Z,2.90
2018-02-11T01:14:00.939Z,3.40
2018-02-11T01:15:00.995Z,3.20
2018-02-11T01:16:01.049Z,2.90
2018-02-11T01:17:01.104Z,3.30
2018-02-11T01:18:01.158Z,3.00
2018-02-11T01:19:01.213Z,2.90
2018-02-11T01:20:01.267Z,2.80
2018-02-11T01:21:01.323Z,2.70
2018-02-11T01:22:01.375Z,2.90
2018-02-11T01:23:01.429Z,2.70
2018-02-11T01:24:01.484Z,2.80
2018-02-11T01:25:01.540Z,2.50
2018-02-11T01:26:01.593Z,2.90
2018-02-11T01:27:01.648Z,2.60
2018-02-11T01:28:01.702Z,2.80
2018-02-11T01:29:01.757Z,2.80
2018-02-11T01:30:01.813Z,2.60
2018-02-11T01:31:01.866Z,2.60
2018-02-11T01:32:01.920Z,2.70
2018-02-11T01:33:01.974Z,3.10
2018-02-11T01:34:02.028Z,2.80
2018-02-11T01:35:02.083Z,2.90
2018-02-11T01:36:02.136Z,2.50
2018-02-11T01:37:02.191Z,2.90
2018-02-11T01:38:02.248Z,2.60
2018-02-11T01:39:02.299Z,2.70
2018-02-11T01:40:02.354Z,2.60
2018-02-11T01:41:02.408Z,2.60
2018-02-11T01:42:02.461Z,2.70
2018-02-11T01:43:02.522Z,2.50
2018-02-11T01:44:02.570Z,2.80
2018-02-11T01:45:02.625Z,2.70
2018-02-11T01:46:02.679Z,2.40
2018-02-11T01:47:02.733Z,2.30
2018-02-11T01:48:02.788Z,2.60
2018-02-11T01:49:02.843Z,2.80
2018-02-11T01:50:02.897Z,2.60
2018-02-11T01:51:02.951Z,2.90
2018-02-11T01:52:03.005Z,2.60
2018-02-11T01:53:03.059Z,2.50
2018-02-11T01:54:03.113Z,2.40
2018-02-11T01:55:03.168Z,2.70
2018-02-11T01:56:03.224Z,2.50
2018-02-11T01:57:03.279Z,2.90
2018-02-11T01:58:03.331Z,2.50
2018-02-11T01:59:03.385Z,3.10
2018-02-11T02:00:03.440Z,2.60
2018-02-11T02:01:03.496Z,2.60
2018-02-11T02:02:03.550Z,3.00
2018-02-11T02:03:03.602Z,2.70
2018-02-11T02:04:03.657Z,2.60
2018-02-11T02:05:03.712Z,2.90
2018-02-11T02:06:03.766Z,2.30
2018-02-11T02:07:03.821Z,2.40
2018-02-11T02:08:03.874Z,2.50
2018-02-11T02:09:03.928Z,2.60
2018-02-11T02:10:03.983Z,2.60
2018-02-11T02:11:04.038Z,2.80
2018-02-11T02:12:04.091Z,2.90
2018-02-11T02:13:04.152Z,2.40
2018-02-11T02:14:04.200Z,2.70
2018-02-11T02:15:04.254Z,2.60
2018-02-11T02:16:04.308Z,2.50
2018-02-11T02:17:04.363Z,2.50
2018-02-11T02:18:04.466Z,2.60
2018-02-11T02:19:04.471Z,2.50
2018-02-11T02:20:04.525Z,2.60
2018-02-11T02:21:04.580Z,2.40
2018-02-11T02:22:04.632Z,2.10
2018-02-11T02:23:04.687Z,2.40
2018-02-11T02:24:04.741Z,2.00
2018-02-11T02:25:04.796Z,2.20
2018-02-11T02:26:04.849Z,2.40
2018-02-11T02:27:04.916Z,2.90
2018-02-11T02:28:04.957Z,2.50
2018-02-11T02:29:05.011Z,2.30
2018-02-11T02:30:05.082Z,2.40
2018-02-11T02:31:05.118Z,2.80
2018-02-11T02:32:05.172Z,2.20
2018-02-11T02:33:05.228Z,2.50
2018-02-11T02:34:05.281Z,2.60
2018-02-11T02:35:05.338Z,2.00
2018-02-11T02:36:05.387Z,2.40
2018-02-11T02:37:05.442Z,2.20
2018-02-11T02:38:05.495Z,2.40
2018-02-11T02:39:05.548Z,2.50
2018-02-11T02:40:05.602Z,2.50
2018-02-11T02:41:05.658Z,2.40
2018-02-11T02:42:05.709Z,2.80
2018-02-11T02:43:05.763Z,2.60
2018-02-11T02:44:05.819Z,2.70
2018-02-11T02:45:05.871Z,2.20
2018-02-11T02:46:05.925Z,2.40
2018-02-11T02:47:06.230Z,2.70
2018-02-11T02:48:06.032Z,2.80
2018-02-11T02:49:06.088Z,2.50
2018-02-11T02:50:06.139Z,2.60
2018-02-11T02:51:06.193Z,2.20
2018-02-11T02:52:06.246Z,2.40
2018-02-11T02:53:06.300Z,2.40
2018-02-11T02:54:06.355Z,2.30
2018-02-11T02:55:06.409Z,2.40
2018-02-11T02:56:06.461Z,2.90
2018-02-11T02:57:06.516Z,2.40
2018-02-11T02:58:06.568Z,2.00
2018-02-11T02:59:06.622Z,2.70
2018-02-11T03:00:06.676Z,2.30
2018-02-11T03:01:06.729Z,2.10
2018-02-11T03:02:06.785Z,2.40
2018-02-11T03:03:06.837Z,2.30
2018-02-11T03:04:06.891Z,2.10
2018-02-11T03:05:06.946Z,2.00
2018-02-11T03:06:06.998Z,2.20
2018-02-11T03:07:07.052Z,2.50
2018-02-11T03:08:07.104Z,2.50
2018-02-11T03:09:07.158Z,2.30
2018-02-11T03:10:07.211Z,2.50
2018-02-11T03:11:07.266Z,2.10
2018-02-11T03:12:07.320Z,2.50
2018-02-11T03:13:07.374Z,2.40
2018-02-11T03:14:07.426Z,2.40
2018-02-11T03:15:07.479Z,2.30
2018-02-11T03:16:07.534Z,2.20
2018-02-11T03:17:07.589Z,2.40
2018-02-11T03:18:07.640Z,2.00
2018-02-11T03:19:07.694Z,2.50
2018-02-11T03:20:07.749Z,2.20
2018-02-11T03:21:07.801Z,2.60
2018-02-11T03:22:07.855Z,2.40
2018-02-11T03:23:07.912Z,2.00
2018-02-11T03:24:07.961Z,2.10
2018-02-11T03:25:08.017Z,2.00
2018-02-11T03:26:08.119Z,1.90
2018-02-11T03:27:08.124Z,2.30
2018-02-11T03:28:08.176Z,2.00
2018-02-11T03:29:08.230Z,2.40
2018-02-11T03:30:08.284Z,2.10
2018-02-11T03:31:08.338Z,2.30
2018-02-11T03:32:08.391Z,2.20
2018-02-11T03:33:08.445Z,2.40
2018-02-11T03:34:08.497Z,1.90
2018-02-11T03:35:08.552Z,1.90
2018-02-11T03:36:08.606Z,2.30
2018-02-11T03:37:08.660Z,2.10
2018-02-11T03:38:08.712Z,2.30
2018-02-11T03:39:08.767Z,1.80
2018-02-11T03:40:08.821Z,2.00
2018-02-11T03:41:08.875Z,2.00
2018-02-11T03:42:08.928Z,1.60
2018-02-11T03:43:08.981Z,2.30
2018-02-11T03:44:09.035Z,1.90
2018-02-11T03:45:09.090Z,2.00
2018-02-11T03:46:09.142Z,2.20
2018-02-11T03:47:09.196Z,1.90
2018-02-11T03:48:09.451Z,1.60
2018-02-11T03:49:09.305Z,2.00
2018-02-11T03:50:09.361Z,1.70
2018-02-11T03:51:09.412Z,1.70
2018-02-11T03:52:09.466Z,1.90
2018-02-11T03:53:09.521Z,1.70
2018-02-11T03:54:09.573Z,2.10
2018-02-11T03:55:09.627Z,1.90
2018-02-11T03:56:09.680Z,1.90
2018-02-11T03:57:09.736Z,2.00
2018-02-11T03:58:09.789Z,2.00
2018-02-11T03:59:09.842Z,2.00
2018-02-11T04:00:09.896Z,2.00
2018-02-11T04:01:09.951Z,2.30
2018-02-11T04:02:10.003Z,1.60
2018-02-11T04:03:10.058Z,2.20
2018-02-11T04:04:10.112Z,1.80
2018-02-11T04:05:10.167Z,1.80
2018-02-11T04:06:10.220Z,2.00
2018-02-11T04:07:10.274Z,2.10
2018-02-11T04:08:10.327Z,2.10
2018-02-11T04:09:10.385Z,2.20
2018-02-11T04:10:12.741Z,2.10
2018-02-11T04:11:10.490Z,1.90
2018-02-11T04:12:10.544Z,2.00
2018-02-11T04:13:10.597Z,1.60
2018-02-11T04:14:10.651Z,1.90
2018-02-11T04:15:10.705Z,1.80
2018-02-11T04:16:10.810Z,1.90
2018-02-11T04:17:10.812Z,1.90
2018-02-11T04:18:10.866Z,1.60
2018-02-11T04:19:10.924Z,1.90
2018-02-11T04:20:10.974Z,1.90
2018-02-11T04:21:11.028Z,1.80
2018-02-11T04:22:11.082Z,1.40
2018-02-11T04:23:11.137Z,1.80
2018-02-11T04:24:11.190Z,2.00
2018-02-11T04:25:11.246Z,1.60
2018-02-11T04:26:11.298Z,2.00
2018-02-11T04:27:11.352Z,1.40
2018-02-11T04:28:11.410Z,1.70
2018-02-11T04:29:11.460Z,1.80
2018-02-11T04:30:11.513Z,1.80
2018-02-11T04:31:11.570Z,2.20
2018-02-11T04:32:11.622Z,1.40
2018-02-11T04:33:11.676Z,1.70
2018-02-11T04:34:11.730Z,2.00
2018-02-11T04:35:11.784Z,2.10
2018-02-11T04:36:11.838Z,1.80
2018-02-11T04:37:11.892Z,1.80
2018-02-11T04:38:11.946Z,1.80
2018-02-11T04:39:12.006Z,1.80
2018-02-11T04:40:12.055Z,1.60
2018-02-11T04:41:12.108Z,1.90
2018-02-11T04:42:12.160Z,1.70
2018-02-11T04:43:12.216Z,1.80
2018-02-11T04:44:12.720Z,1.70
2018-02-11T04:45:12.323Z,1.80
2018-02-11T04:46:12.377Z,1.60
2018-02-11T04:47:12.430Z,1.70
2018-02-11T04:48:12.485Z,1.90
2018-02-11T04:49:12.540Z,1.80
2018-02-11T04:50:12.642Z,1.80
2018-02-11T04:51:12.647Z,1.80
2018-02-11T04:52:12.703Z,2.00
2018-02-11T04:53:12.755Z,1.90
2018-02-11T04:54:12.807Z,1.70
2018-02-11T04:55:12.871Z,1.70
2018-02-11T04:56:12.916Z,1.80
2018-02-11T04:57:12.970Z,1.60
2018-02-11T04:58:13.023Z,1.80
2018-02-11T04:59:13.077Z,1.60
2018-02-11T05:00:13.132Z,2.00
2018-02-11T05:01:13.235Z,2.00
2018-02-11T05:02:13.238Z,1.90
2018-02-11T05:03:13.298Z,1.60
2018-02-11T05:04:13.346Z,1.70
2018-02-11T05:05:13.400Z,1.90
2018-02-11T05:06:13.455Z,1.70
2018-02-11T05:07:13.507Z,1.80
2018-02-11T05:08:13.564Z,2.10
2018-02-11T05:09:13.616Z,1.80
2018-02-11T05:10:13.669Z,1.90
2018-02-11T05:11:13.722Z,1.70
2018-02-11T05:12:13.782Z,1.70
2018-02-11T05:13:13.832Z,1.80
2018-02-11T05:14:13.884Z,1.40
2018-02-11T05:15:13.939Z,1.70
2018-02-11T05:16:13.992Z,1.60
2018-02-11T05:17:14.047Z,1.50
2018-02-11T05:18:14.099Z,1.60
2018-02-11T05:19:14.155Z,1.60
2018-02-11T05:20:14.207Z,1.90
2018-02-11T05:21:14.262Z,1.70
2018-02-11T05:22:14.315Z,1.70
2018-02-11T05:23:14.369Z,1.70
2018-02-11T05:24:14.423Z,1.50
2018-02-11T05:25:14.477Z,1.60
2018-02-11T05:26:14.531Z,1.80
2018-02-11T05:27:14.584Z,1.70
2018-02-11T05:28:14.638Z,1.70
2018-02-11T05:29:14.693Z,1.60
2018-02-11T05:30:14.746Z,2.00
2018-02-11T05:31:14.800Z,1.90
2018-02-11T05:32:14.853Z,1.70
2018-02-11T05:33:14.913Z,1.80
2018-02-11T05:34:14.960Z,1.80
2018-02-11T05:35:15.016Z,1.80
2018-02-11T05:36:15.069Z,1.60
2018-02-11T05:37:15.124Z,1.80
2018-02-11T05:38:15.178Z,2.10
2018-02-11T05:39:15.231Z,1.90
2018-02-11T05:40:15.284Z,1.70
2018-02-11T05:41:15.338Z,1.90
2018-02-11T05:42:15.393Z,2.00
2018-02-11T05:43:15.445Z,1.80
2018-02-11T05:44:15.499Z,1.90
2018-02-11T05:45:15.553Z,1.90
2018-02-11T05:46:15.607Z,2.00
2018-02-11T05:47:15.710Z,1.70
2018-02-11T05:48:15.714Z,1.80
2018-02-11T05:49:15.769Z,1.90
2018-02-11T05:50:15.823Z,1.70
2018-02-11T05:51:15.876Z,1.80
2018-02-11T05:52:16.180Z,2.00
2018-02-11T05:53:15.983Z,2.20
2018-02-11T05:54:16.037Z,2.00
2018-02-11T05:55:16.091Z,2.00
2018-02-11T05:56:16.146Z,1.90
2018-02-11T05:57:16.200Z,2.10
2018-02-11T05:58:16.252Z,2.10
2018-02-11T05:59:16.308Z,2.30
2018-02-11T06:00:16.362Z,2.00
2018-02-11T06:01:16.415Z,2.10
2018-02-11T06:02:16.468Z,2.00
2018-02-11T06:03:16.521Z,1.90
2018-02-11T06:04:16.576Z,1.90
2018-02-11T06:05:16.629Z,2.10
2018-02-11T06:06:16.683Z,1.90
2018-02-11T06:07:16.738Z,2.10
2018-02-11T06:08:16.791Z,1.90
2018-02-11T06:09:16.845Z,2.20
2018-02-11T06:10:16.899Z,2.30
2018-02-11T06:11:16.954Z,1.80
2018-02-11T06:12:17.006Z,2.20
2018-02-11T06:13:17.063Z,2.10
2018-02-11T06:14:17.114Z,2.30
2018-02-11T06:15:17.168Z,2.20
2018-02-11T06:16:17.223Z,2.20
2018-02-11T06:17:17.277Z,2.20
2018-02-11T06:18:17.330Z,2.00
2018-02-11T06:19:17.383Z,2.00
2018-02-11T06:20:17.437Z,2.20
2018-02-11T06:21:17.490Z,2.00
2018-02-11T06:22:17.547Z,2.00
2018-02-11T06:23:17.600Z,2.10
2018-02-11T06:24:17.654Z,1.90
2018-02-11T06:25:17.708Z,2.00
2018-02-11T06:26:17.759Z,2.00
2018-02-11T06:27:17.815Z,2.00
2018-02-11T06:28:17.870Z,2.00
2018-02-11T06:29:17.922Z,1.80
2018-02-11T06:30:17.976Z,1.90
2018-02-11T06:31:18.030Z,2.10
2018-02-11T06:32:18.084Z,2.10
2018-02-11T06:33:18.138Z,1.60
2018-02-11T06:34:18.191Z,2.00
2018-02-11T06:35:18.246Z,1.80
2018-02-11T06:36:18.299Z,2.20
2018-02-11T06:37:18.353Z,2.00
2018-02-11T06:38:18.407Z,1.90
2018-02-11T06:39:18.462Z,1.90
2018-02-11T06:40:18.515Z,1.90
2018-02-11T06:41:18.570Z,1.90
2018-02-11T06:42:18.623Z,1.90
2018-02-11T06:43:18.677Z,1.90
2018-02-11T06:44:18.731Z,2.10
2018-02-11T06:45:18.785Z,1.90
2018-02-11T06:46:18.840Z,2.00
2018-02-11T06:47:18.893Z,1.90
2018-02-11T06:48:18.950Z,1.90
2018-02-11T06:49:19.003Z,1.80
2018-02-11T06:50:19.106Z,1.70
2018-02-11T06:51:19.111Z,2.00
2018-02-11T06:52:19.164Z,1.70
2018-02-11T06:53:19.224Z,1.80
2018-02-11T06:54:19.273Z,1.90
2018-02-11T06:55:19.328Z,2.00
2018-02-11T06:56:19.382Z,1.70
2018-02-11T06:57:19.436Z,2.10
2018-02-11T06:58:19.490Z,1.90
2018-02-11T06:59:19.544Z,1.90
2018-02-11T07:00:19.599Z,2.00
2018-02-11T07:01:19.903Z,2.10
2018-02-11T07:02:19.708Z,2.10
2018-02-11T07:03:19.762Z,2.10
2018-02-11T07:04:19.816Z,1.90
2018-02-11T07:05:19.873Z,2.00
2018-02-11T07:06:19.924Z,1.90
2018-02-11T07:07:19.979Z,2.00
2018-02-11T07:08:20.035Z,1.90
2018-02-11T07:09:20.088Z,1.90
2018-02-11T07:10:20.142Z,1.70
2018-02-11T07:11:20.197Z,1.90
2018-02-11T07:12:20.251Z,1.90
2018-02-11T07:13:20.306Z,1.70
2018-02-11T07:14:20.360Z,1.70
2018-02-11T07:15:20.414Z,1.50
2018-02-11T07:16:20.469Z,1.40
2018-02-11T07:17:20.823Z,1.60
2018-02-11T07:18:20.578Z,1.90
2018-02-11T07:19:20.631Z,1.70
2018-02-11T07:20:20.686Z,1.90
2018-02-11T07:21:20.740Z,1.90
2018-02-11T07:22:20.794Z,1.80
2018-02-11T07:23:21.101Z,1.40
2018-02-11T07:24:20.903Z,1.40
2018-02-11T07:25:20.959Z,1.60
2018-02-11T07:26:21.012Z,1.60
2018-02-11T07:27:21.070Z,1.60
2018-02-11T07:28:21.121Z,1.60
2018-02-11T07:29:21.175Z,1.60
2018-02-11T07:30:21.229Z,1.40
2018-02-11T07:31:21.283Z,1.50
2018-02-11T07:32:21.339Z,1.80
2018-02-11T07:33:21.393Z,1.40
2018-02-11T07:34:21.447Z,1.60
2018-02-11T07:35:21.501Z,1.50
2018-02-11T07:36:21.555Z,1.70
2018-02-11T07:37:21.609Z,1.50
2018-02-11T07:38:21.664Z,1.40
2018-02-11T07:39:21.717Z,1.70
2018-02-11T07:40:21.773Z,1.40
2018-02-11T07:41:21.827Z,1.80
2018-02-11T07:42:21.881Z,1.50
2018-02-11T07:43:21.933Z,1.60
2018-02-11T07:44:21.989Z,1.40
2018-02-11T07:45:22.042Z,1.30
2018-02-11T07:46:22.096Z,1.40
2018-02-11T07:47:22.172Z,1.50
2018-02-11T07:48:22.204Z,1.20
2018-02-11T07:49:22.259Z,1.70
2018-02-11T07:50:22.313Z,1.50
2018-02-11T07:51:22.368Z,1.40
2018-02-11T07:52:22.421Z,1.50
2018-02-11T07:53:22.475Z,1.40
2018-02-11T07:54:22.530Z,1.50
2018-02-11T07:55:22.583Z,1.60
2018-02-11T07:56:22.637Z,1.30
2018-02-11T07:57:22.691Z,1.50
2018-02-11T07:58:22.746Z,1.50
2018-02-11T07:59:22.800Z,1.60
2018-02-11T08:00:22.861Z,1.20
2018-02-11T08:01:22.908Z,1.50
2018-02-11T08:02:22.964Z,1.50
2018-02-11T08:03:23.017Z,1.50
2018-02-11T08:04:23.071Z,1.30
2018-02-11T08:05:23.126Z,1.60
2018-02-11T08:06:23.178Z,1.50
2018-02-11T08:07:23.240Z,1.30
2018-02-11T08:08:23.286Z,1.40
2018-02-11T08:09:23.342Z,1.30
2018-02-11T08:10:23.394Z,1.50
2018-02-11T08:11:23.449Z,1.30
2018-02-11T08:12:23.505Z,1.50
2018-02-11T08:13:23.559Z,1.50
2018-02-11T08:14:23.611Z,1.40
2018-02-11T08:15:23.666Z,1.40
2018-02-11T08:16:23.721Z,1.10
2018-02-11T08:17:23.774Z,1.40
2018-02-11T08:18:23.828Z,1.40
2018-02-11T08:19:23.883Z,1.60
2018-02-11T08:20:23.938Z,1.70
2018-02-11T08:21:23.990Z,1.40
2018-02-11T08:22:24.046Z,1.00
2018-02-11T08:23:24.410Z,1.30
2018-02-11T08:24:24.156Z,1.30
2018-02-11T08:25:24.208Z,1.20
2018-02-11T08:26:24.262Z,1.40
2018-02-11T08:27:24.354Z,1.30
2018-02-11T08:28:24.374Z,1.20
2018-02-11T08:29:24.431Z,1.30
2018-02-11T08:30:24.480Z,1.40
2018-02-11T08:31:24.534Z,1.20
2018-02-11T08:32:24.589Z,1.20
2018-02-11T08:33:24.643Z,1.30
2018-02-11T08:34:24.696Z,1.30
2018-02-11T08:35:24.753Z,1.40
2018-02-11T08:36:24.856Z,1.10
2018-02-11T08:37:24.860Z,1.40
2018-02-11T08:38:24.915Z,1.10
2018-02-11T08:39:24.970Z,1.20
2018-02-11T08:40:25.024Z,1.20
2018-02-11T08:41:25.078Z,1.20
2018-02-11T08:42:25.130Z,1.40
2018-02-11T08:43:25.186Z,1.30
2018-02-11T08:44:25.242Z,1.20
2018-02-11T08:45:25.296Z,1.10
2018-02-11T08:46:25.349Z,1.20
2018-02-11T08:47:25.653Z,1.20
2018-02-11T08:48:25.457Z,1.30
2018-02-11T08:49:25.512Z,1.40
2018-02-11T08:50:25.565Z,1.40
2018-02-11T08:51:25.620Z,1.20
2018-02-11T08:52:25.674Z,1.20
2018-02-11T08:53:25.728Z,1.30
2018-02-11T08:54:25.783Z,1.40
2018-02-11T08:55:25.837Z,1.20
2018-02-11T08:56:25.893Z,1.30
2018-02-11T08:57:25.946Z,1.50
2018-02-11T08:58:26.000Z,1.20
2018-02-11T08:59:26.056Z,1.40
2018-02-11T09:00:26.110Z,1.20
2018-02-11T09:01:26.165Z,1.40
2018-02-11T09:02:26.217Z,1.30
2018-02-11T09:03:26.274Z,1.10
2018-02-11T09:04:26.328Z,1.10
2018-02-11T09:05:26.384Z,1.00
2018-02-11T09:06:26.438Z,0.90
2018-02-11T09:07:26.493Z,1.10
2018-02-11T09:08:26.546Z,1.20
2018-02-11T09:09:26.602Z,1.30
2018-02-11T09:10:26.657Z,1.20
2018-02-11T09:11:26.712Z,1.20
2018-02-11T09:12:26.767Z,1.40
2018-02-11T09:13:26.823Z,1.40
2018-02-11T09:14:26.877Z,1.30
2018-02-11T09:15:26.934Z,1.10
2018-02-11T09:16:26.986Z,1.10
2018-02-11T09:17:27.043Z,1.00
2018-02-11T09:18:27.097Z,0.90
2018-02-11T09:19:27.152Z,0.90
2018-02-11T09:20:27.208Z,1.10
2018-02-11T09:21:27.264Z,1.00
2018-02-11T09:22:27.318Z,1.20
2018-02-11T09:23:27.374Z,1.10
2018-02-11T09:24:27.434Z,0.80
2018-02-11T09:25:28.086Z,1.20
2018-02-11T09:26:27.537Z,1.10
2018-02-11T09:27:27.593Z,1.10
2018-02-11T09:28:27.649Z,0.80
2018-02-11T09:29:27.703Z,1.20
2018-02-11T09:30:27.758Z,1.00
2018-02-11T09:31:27.814Z,0.90
2018-02-11T09:32:27.869Z,1.00
2018-02-11T09:33:27.925Z,1.00
2018-02-11T09:34:27.979Z,1.00
2018-02-11T09:35:28.034Z,1.20
2018-02-11T09:36:28.089Z,0.90
2018-02-11T09:37:28.144Z,1.00
2018-02-11T09:38:28.199Z,1.10
2018-02-11T09:39:28.262Z,1.00
2018-02-11T09:40:28.343Z,1.10
2018-02-11T09:41:28.986Z,0.90
2018-02-11T09:42:28.420Z,0.90
2018-02-11T09:43:28.475Z,1.20
2018-02-11T09:44:28.533Z,1.10
2018-02-11T09:45:28.585Z,1.00
2018-02-11T09:46:28.641Z,1.30
2018-02-11T09:47:28.695Z,0.90
2018-02-11T09:48:28.751Z,1.10
2018-02-11T09:49:28.807Z,0.90
2018-02-11T09:50:28.862Z,0.90
2018-02-11T09:51:28.918Z,1.00
2018-02-11T09:52:28.972Z,1.00
2018-02-11T09:53:29.028Z,1.00
2018-02-11T09:54:29.084Z,1.00
2018-02-11T09:55:29.138Z,0.90
2018-02-11T09:56:29.195Z,0.80
2018-02-11T09:57:29.250Z,0.80
2018-02-11T09:58:29.305Z,1.00
2018-02-11T09:59:29.361Z,0.90
2018-02-11T10:00:29.416Z,0.90
2018-02-11T10:01:29.472Z,1.10
2018-02-11T10:02:29.527Z,0.90
2018-02-11T10:03:29.582Z,1.30
2018-02-11T10:04:29.639Z,0.80
2018-02-11T10:05:29.694Z,0.70
2018-02-11T10:06:29.749Z,0.90
2018-02-11T10:07:29.806Z,0.80
2018-02-11T10:08:29.863Z,0.80
2018-02-11T10:09:29.918Z,1.00
2018-02-11T10:10:29.972Z,0.80
2018-02-11T10:11:30.029Z,0.90
2018-02-11T10:12:30.085Z,0.60
2018-02-11T10:13:30.143Z,0.80
2018-02-11T10:14:30.197Z,0.80
2018-02-11T10:15:30.818Z,0.60
2018-02-11T10:16:30.311Z,0.60
2018-02-11T10:17:30.372Z,0.70
2018-02-11T10:18:30.422Z,0.70
2018-02-11T10:19:30.477Z,0.80
2018-02-11T10:20:30.536Z,0.80
2018-02-11T10:21:30.597Z,0.70
2018-02-11T10:22:30.646Z,0.90
2018-02-11T10:23:30.704Z,0.70
2018-02-11T10:24:31.011Z,0.70
2018-02-11T10:25:30.819Z,0.80
2018-02-11T10:26:30.872Z,0.50
2018-02-11T10:27:30.928Z,1.00
2018-02-11T10:28:30.986Z,0.80
2018-02-11T10:29:31.043Z,0.60
2018-02-11T10:30:31.109Z,0.70
2018-02-11T10:31:31.156Z,0.80
2018-02-11T10:32:31.212Z,0.50
2018-02-11T10:33:31.276Z,0.60
2018-02-11T10:34:31.326Z,0.80
2018-02-11T10:35:31.382Z,0.80
2018-02-11T10:36:31.439Z,0.70
2018-02-11T10:37:31.498Z,0.50
2018-02-11T10:38:31.553Z,0.50
2018-02-11T10:39:31.610Z,0.70
2018-02-11T10:40:31.667Z,0.80
2018-02-11T10:41:31.974Z,0.60
2018-02-11T10:42:32.354Z,0.50
2018-02-11T10:43:31.837Z,0.50
2018-02-11T10:44:32.452Z,0.70
2018-02-11T10:45:31.951Z,0.70
2018-02-11T10:46:32.008Z,0.70
2018-02-11T10:47:32.065Z,0.50
2018-02-11T10:48:32.122Z,0.60
2018-02-11T10:49:32.179Z,0.70
2018-02-11T10:50:32.234Z,0.80
2018-02-11T10:51:32.292Z,0.70
2018-02-11T10:52:32.348Z,0.70
2018-02-11T10:53:32.405Z,0.70
2018-02-11T10:54:32.462Z,0.70
2018-02-11T10:55:32.517Z,0.80
2018-02-11T10:56:32.575Z,0.70
2018-02-11T10:57:32.632Z,0.80
2018-02-11T10:58:32.687Z,0.90
2018-02-11T10:59:32.744Z,0.70
2018-02-11T11:00:32.800Z,0.80
2018-02-11T11:01:32.858Z,0.60
2018-02-11T11:02:32.914Z,0.50
2018-02-11T11:03:32.969Z,0.70
2018-02-11T11:04:33.027Z,0.70
2018-02-11T11:05:33.084Z,0.80
2018-02-11T11:06:33.143Z,0.90
2018-02-11T11:07:33.229Z,0.90
2018-02-11T11:08:33.251Z,0.70
2018-02-11T11:09:33.309Z,0.90
2018-02-11T11:10:33.364Z,0.80
2018-02-11T11:11:33.424Z,0.80
2018-02-11T11:12:33.479Z,1.20
2018-02-11T11:13:33.535Z,0.70
2018-02-11T11:14:33.590Z,0.80
2018-02-11T11:15:33.647Z,0.80
2018-02-11T11:16:33.703Z,1.10
2018-02-11T11:17:33.760Z,0.90
2018-02-11T11:18:33.815Z,1.10
2018-02-11T11:19:33.876Z,0.90
2018-02-11T11:20:33.929Z,0.90
2018-02-11T11:21:34.036Z,0.90
2018-02-11T11:22:34.470Z,0.80
2018-02-11T11:23:34.099Z,0.80
2018-02-11T11:24:34.156Z,0.80
2018-02-11T11:25:34.213Z,0.90
2018-02-11T11:26:34.269Z,1.10
2018-02-11T11:27:34.325Z,1.00
2018-02-11T11:28:34.383Z,0.90
2018-02-11T11:29:34.441Z,0.90
2018-02-11T11:30:34.495Z,0.90
2018-02-11T11:31:34.552Z,0.80
2018-02-11T11:32:34.609Z,1.00
2018-02-11T11:33:34.667Z,1.20
2018-02-11T11:34:34.721Z,1.30
2018-02-11T11:35:34.778Z,0.90
2018-02-11T11:36:34.834Z,0.80
2018-02-11T11:37:34.895Z,0.80
2018-02-11T11:38:34.948Z,1.00
2018-02-11T11:39:35.004Z,1.00
2018-02-11T11:40:35.060Z,1.10
2018-02-11T11:41:35.118Z,1.50
2018-02-11T11:42:35.173Z,1.40
2018-02-11T11:43:35.232Z,1.20
2018-02-11T11:44:35.287Z,1.00
2018-02-11T11:45:35.343Z,1.20
2018-02-11T11:46:35.400Z,1.00
2018-02-11T11:47:35.456Z,1.20
2018-02-11T11:48:35.514Z,1.20
2018-02-11T11:49:35.571Z,1.10
2018-02-11T11:50:35.631Z,1.00
2018-02-11T11:51:35.683Z,1.00
2018-02-11T11:52:36.311Z,1.20
2018-02-11T11:53:35.797Z,1.10
2018-02-11T11:54:35.858Z,1.10
2018-02-11T11:55:35.910Z,1.40
2018-02-11T11:56:35.968Z,1.30
2018-02-11T11:57:36.025Z,1.20
2018-02-11T11:58:36.081Z,1.00
2018-02-11T11:59:36.139Z,1.30
2018-02-11T12:00:36.196Z,1.00
2018-02-11T12:01:36.258Z,1.50
2018-02-11T12:02:36.310Z,1.30
2018-02-11T12:03:36.367Z,1.10
2018-02-11T12:04:36.425Z,1.40
2018-02-11T12:05:36.483Z,1.10
2018-02-11T12:06:36.537Z,1.30
2018-02-11T12:07:36.595Z,1.20
2018-02-11T12:08:36.653Z,1.30
2018-02-11T12:09:36.713Z,1.50
2018-02-11T12:10:36.767Z,1.30
2018-02-11T12:11:36.824Z,1.40
2018-02-11T12:12:36.882Z,1.40
2018-02-11T12:13:36.939Z,1.40
2018-02-11T12:14:36.997Z,1.20
2018-02-11T12:15:37.053Z,1.20
2018-02-11T12:16:37.110Z,1.40
2018-02-11T12:17:37.171Z,1.10
2018-02-11T12:18:37.226Z,1.30
2018-02-11T12:19:37.282Z,1.20
2018-02-11T12:20:37.342Z,1.50
2018-02-11T12:21:37.398Z,1.50
2018-02-11T12:22:37.453Z,1.50
2018-02-11T12:23:37.511Z,1.40
2018-02-11T12:24:37.572Z,1.40
2018-02-11T12:25:37.626Z,1.60
2018-02-11T12:26:37.681Z,1.40
2018-02-11T12:27:37.739Z,1.60
2018-02-11T12:28:37.796Z,1.50
2018-02-11T12:29:37.853Z,1.80
2018-02-11T12:30:37.910Z,1.20
2018-02-11T12:31:37.966Z,1.40
2018-02-11T12:32:38.024Z,1.40
2018-02-11T12:33:38.079Z,1.80
2018-02-11T12:34:38.136Z,1.60
2018-02-11T12:35:38.194Z,1.70
2018-02-11T12:36:38.250Z,1.90
2018-02-11T12:37:38.308Z,1.40
2018-02-11T12:38:38.364Z,1.50
2018-02-11T12:39:38.422Z,1.70
2018-02-11T12:40:38.477Z,1.50
2018-02-11T12:41:38.532Z,1.70
2018-02-11T12:42:38.589Z,1.90
2018-02-11T12:43:38.646Z,1.70
2018-02-11T12:44:38.703Z,1.50
2018-02-11T12:45:38.760Z,1.50
2018-02-11T12:46:38.814Z,1.70
2018-02-11T12:47:38.876Z,1.60
2018-02-11T12:48:38.929Z,1.60
2018-02-11T12:49:38.985Z,1.80
2018-02-11T12:50:39.041Z,1.60
2018-02-11T12:51:39.098Z,1.40
2018-02-11T12:52:39.154Z,1.40
2018-02-11T12:53:39.211Z,1.60
2018-02-11T12:54:39.267Z,1.30
2018-02-11T12:55:39.324Z,1.70
2018-02-11T12:56:39.382Z,1.60
2018-02-11T12:57:39.438Z,1.80
2018-02-11T12:58:39.494Z,1.50
2018-02-11T12:59:39.550Z,1.70
2018-02-11T13:00:39.608Z,1.50
2018-02-11T13:01:39.671Z,1.70
2018-02-11T13:02:39.721Z,1.70
2018-02-11T13:03:39.778Z,1.50
2018-02-11T13:04:39.837Z,1.30
2018-02-11T13:05:39.893Z,1.60
2018-02-11T13:06:39.951Z,1.50
2018-02-11T13:07:40.008Z,1.30
2018-02-11T13:08:40.065Z,1.40
2018-02-11T13:09:40.123Z,1.30
2018-02-11T13:10:40.177Z,1.20
2018-02-11T13:11:40.236Z,1.40
2018-02-11T13:12:40.293Z,1.40
2018-02-11T13:13:40.350Z,1.50
2018-02-11T13:14:40.407Z,1.30
2018-02-11T13:15:40.463Z,1.30
2018-02-11T13:16:40.521Z,1.20
2018-02-11T13:17:40.577Z,1.40
2018-02-11T13:18:40.633Z,1.40
2018-02-11T13:19:40.691Z,1.10